Time;durP1;ratioP1;P1;durP2;ratioP2;P2;SDS_P1;SDS_P2;PMS_P1;PMS_P2;Temp;Humidity;BMP_temperature;BMP_pressure;BME280_temperature;BME280_humidity;BME280_pressure;Samples;Min_cycle;Max_cycle;Signal;HPM_P1;HPM_P2
2024/04/13 00:01:55;;;;;;;2.93;0.50;;;;;;;;;;5329954;26;20358;-91
2024/04/13 00:04:23;;;;;;;0.70;0.70;;;;;;;;;;5301349;26;20323;-92
2024/04/13 00:06:53;;;;;;;3.77;1.13;;;;;;;;;;5321901;26;20275;-91
2024/04/13 00:09:20;;;;;;;3.67;1.03;;;;;;;;;;5325881;26;20303;-91
2024/04/13 00:11:47;;;;;;;1.10;0.90;;;;;;;;;;5303034;26;20261;-93
2024/04/13 00:14:13;;;;;;;3.07;1.10;;;;;;;;;;5299075;26;20669;-91
2024/04/13 00:16:39;;;;;;;1.77;1.30;;;;;;;;;;5295556;26;20317;-93
2024/04/13 00:19:05;;;;;;;4.03;1.23;;;;;;;;;;5326106;26;20260;-90
2024/04/13 00:21:31;;;;;;;7.67;2.17;;;;;;;;;;5329291;26;20248;-91
2024/04/13 00:23:58;;;;;;;5.80;1.20;;;;;;;;;;5326089;26;20271;-93
2024/04/13 00:26:24;;;;;;;0.30;0.30;;;;;;;;;;5325865;26;20268;-94
2024/04/13 00:28:53;;;;;;;3.60;0.77;;;;;;;;;;5301967;26;20769;-92
2024/04/13 00:31:20;;;;;;;10.80;1.77;;;;;;;;;;5324684;26;20294;-91
2024/04/13 00:33:47;;;;;;;3.27;1.03;;;;;;;;;;5325876;26;20245;-91
2024/04/13 00:36:14;;;;;;;7.60;1.23;;;;;;;;;;5325326;26;20246;-91
2024/04/13 00:38:40;;;;;;;2.57;1.57;;;;;;;;;;5319404;26;20298;-92
2024/04/13 00:41:06;;;;;;;2.67;1.80;;;;;;;;;;5300629;26;20309;-90
2024/04/13 00:43:32;;;;;;;1.53;0.77;;;;;;;;;;5323971;26;20265;-92
2024/04/13 00:46:06;;;;;;;0.40;0.40;;;;;;;;;;5328873;26;20248;-93
2024/04/13 00:48:36;;;;;;;1.57;1.23;;;;;;;;;;5302440;26;20252;-92
2024/04/13 00:51:04;;;;;;;2.33;1.33;;;;;;;;;;5325692;26;20331;-93
2024/04/13 00:53:34;;;;;;;10.83;0.87;;;;;;;;;;5326204;26;20264;-92
2024/04/13 00:56:06;;;;;;;1.67;0.90;;;;;;;;;;5328532;26;20268;-94
2024/04/13 00:58:35;;;;;;;5.03;0.97;;;;;;;;;;5358132;26;20268;-93
2024/04/13 01:01:02;;;;;;;6.73;1.53;;;;;;;;;;5331247;26;20731;-92
2024/04/13 01:03:29;;;;;;;8.77;0.93;;;;;;;;;;5328065;26;20249;-92
2024/04/13 01:05:56;;;;;;;2.53;0.93;;;;;;;;;;5339080;26;20740;-93
2024/04/13 01:08:22;;;;;;;0.70;0.70;;;;;;;;;;5326190;26;20332;-94
2024/04/13 01:10:48;;;;;;;1.60;1.37;;;;;;;;;;5329508;26;20275;-93
2024/04/13 01:13:18;;;;;;;1.80;0.93;;;;;;;;;;5328912;26;20269;-94
2024/04/13 01:15:44;;;;;;;3.97;1.60;;;;;;;;;;5299833;26;20279;-93
2024/04/13 01:18:10;;;;;;;1.80;1.60;;;;;;;;;;5327898;26;20320;-94
2024/04/13 01:20:40;;;;;;;1.63;0.77;;;;;;;;;;5336829;26;20307;-94
2024/04/13 01:23:11;;;;;;;2.47;1.00;;;;;;;;;;5330102;26;20265;-94
2024/04/13 01:25:41;;;;;;;0.83;0.80;;;;;;;;;;5316938;26;20292;-94
2024/04/13 01:28:07;;;;;;;1.17;1.13;;;;;;;;;;5321655;26;20293;-93
2024/04/13 01:30:39;;;;;;;10.63;1.50;;;;;;;;;;5328127;26;20245;-94
2024/04/13 01:33:06;;;;;;;1.07;0.77;;;;;;;;;;5328289;26;20737;-93
2024/04/13 01:35:32;;;;;;;1.90;1.63;;;;;;;;;;5323638;26;20265;-93
2024/04/13 01:38:05;;;;;;;4.97;1.10;;;;;;;;;;5327307;26;20257;-92
2024/04/13 01:40:32;;;;;;;2.60;1.27;;;;;;;;;;5313154;26;20330;-93
2024/04/13 01:42:58;;;;;;;3.03;1.20;;;;;;;;;;5327395;26;20236;-92
2024/04/13 01:45:26;;;;;;;2.43;1.97;;;;;;;;;;5324054;26;20248;-92
2024/04/13 01:47:53;;;;;;;1.73;0.80;;;;;;;;;;5333177;26;20247;-92
2024/04/13 01:50:19;;;;;;;2.57;1.23;;;;;;;;;;5328541;26;20828;-92
2024/04/13 01:52:45;;;;;;;2.63;0.70;;;;;;;;;;5326336;26;20261;-92
2024/04/13 01:55:15;;;;;;;1.93;1.53;;;;;;;;;;5326128;26;21433;-95
2024/04/13 01:57:41;;;;;;;5.83;1.50;;;;;;;;;;5325262;26;20337;-91
2024/04/13 02:00:07;;;;;;;4.93;1.30;;;;;;;;;;5326584;26;20269;-93
2024/04/13 02:02:34;;;;;;;1.73;1.63;;;;;;;;;;5325607;26;20681;-93
2024/04/13 02:05:00;;;;;;;4.13;1.57;;;;;;;;;;5348645;26;20268;-93
2024/04/13 02:07:29;;;;;;;0.50;0.50;;;;;;;;;;5324235;26;20346;-93
2024/04/13 02:09:55;;;;;;;4.27;2.93;;;;;;;;;;5324802;26;20240;-93
2024/04/13 02:12:24;;;;;;;11.70;2.23;;;;;;;;;;5327039;26;20718;-91
2024/04/13 02:14:52;;;;;;;1.07;0.80;;;;;;;;;;5325521;26;20368;-91
2024/04/13 02:17:18;;;;;;;2.53;0.60;;;;;;;;;;5311383;26;20265;-91
2024/04/13 02:19:47;;;;;;;6.50;1.27;;;;;;;;;;5332404;26;20262;-91
2024/04/13 02:22:15;;;;;;;5.03;2.10;;;;;;;;;;5326966;26;20438;-91
2024/04/13 02:24:44;;;;;;;9.93;2.30;;;;;;;;;;5328454;26;20253;-91
2024/04/13 02:27:13;;;;;;;17.37;1.40;;;;;;;;;;5327748;26;20260;-91
2024/04/13 02:29:39;;;;;;;4.80;1.17;;;;;;;;;;5299393;26;20268;-91
2024/04/13 02:32:06;;;;;;;1.37;1.00;;;;;;;;;;5296946;26;20386;-90
2024/04/13 02:34:33;;;;;;;2.33;1.03;;;;;;;;;;5321611;26;20302;-91
2024/04/13 02:37:02;;;;;;;11.63;1.60;;;;;;;;;;5327355;26;21074;-91
2024/04/13 02:39:29;;;;;;;1.90;1.13;;;;;;;;;;5356338;26;20293;-92
2024/04/13 02:41:55;;;;;;;2.17;1.10;;;;;;;;;;5315985;26;20264;-91
2024/04/13 02:44:21;;;;;;;3.17;1.73;;;;;;;;;;5297654;26;20280;-92
2024/04/13 02:46:50;;;;;;;3.70;1.37;;;;;;;;;;5358036;26;20419;-93
2024/04/13 02:49:16;;;;;;;1.10;0.97;;;;;;;;;;5295318;26;20286;-92
2024/04/13 02:51:46;;;;;;;0.50;0.50;;;;;;;;;;5352819;26;20249;-91
2024/04/13 02:54:12;;;;;;;1.37;1.10;;;;;;;;;;5328652;26;20260;-91
2024/04/13 02:56:39;;;;;;;2.57;1.17;;;;;;;;;;5301152;26;20311;-91
2024/04/13 02:59:06;;;;;;;3.07;1.40;;;;;;;;;;5325551;26;20257;-91
2024/04/13 03:01:33;;;;;;;2.40;1.00;;;;;;;;;;5299056;26;20268;-93
2024/04/13 03:04:02;;;;;;;2.93;1.23;;;;;;;;;;5319547;26;20241;-93
2024/04/13 03:06:28;;;;;;;1.10;1.03;;;;;;;;;;5300382;26;20330;-93
2024/04/13 03:08:59;;;;;;;0.70;0.70;;;;;;;;;;5327774;26;20265;-93
2024/04/13 03:11:27;;;;;;;9.30;1.47;;;;;;;;;;5326135;26;20307;-92
2024/04/13 03:13:57;;;;;;;1.60;0.83;;;;;;;;;;5320061;26;20302;-93
2024/04/13 03:16:27;;;;;;;10.03;1.53;;;;;;;;;;5311812;26;20261;-93
2024/04/13 03:18:55;;;;;;;1.57;0.93;;;;;;;;;;5325512;26;20616;-92
2024/04/13 03:21:24;;;;;;;3.80;0.60;;;;;;;;;;5358506;26;20248;-93
2024/04/13 03:23:50;;;;;;;0.30;0.30;;;;;;;;;;5327704;26;20358;-94
2024/04/13 03:26:16;;;;;;;3.43;1.27;;;;;;;;;;5324766;26;20367;-92
2024/04/13 03:28:43;;;;;;;14.20;1.87;;;;;;;;;;5324163;26;20275;-93
2024/04/13 03:31:11;;;;;;;2.33;1.90;;;;;;;;;;5324494;26;20272;-93
2024/04/13 03:33:37;;;;;;;1.00;1.00;;;;;;;;;;5326447;26;20880;-94
2024/04/13 03:36:04;;;;;;;0.87;0.70;;;;;;;;;;5321680;26;20268;-92
2024/04/13 03:38:31;;;;;;;1.43;1.30;;;;;;;;;;5321715;26;20300;-92
2024/04/13 03:41:07;;;;;;;3.70;0.80;;;;;;;;;;5313169;26;20838;-94
2024/04/13 03:43:37;;;;;;;9.87;1.13;;;;;;;;;;5329387;26;20353;-94
2024/04/13 03:46:06;;;;;;;1.07;1.00;;;;;;;;;;5328124;26;20248;-93
2024/04/13 03:48:32;;;;;;;6.43;1.90;;;;;;;;;;5327469;26;20264;-95
2024/04/13 03:54:05;;;;;;;2.27;1.03;;;;;;;;;;5322075;26;20259;-92
2024/04/13 03:56:32;;;;;;;2.63;2.43;;;;;;;;;;5338318;26;20264;-94
2024/04/13 03:58:58;;;;;;;4.63;0.83;;;;;;;;;;5318521;26;20265;-93
2024/04/13 04:01:27;;;;;;;1.50;1.03;;;;;;;;;;5289216;26;20273;-93
2024/04/13 04:03:53;;;;;;;2.70;1.73;;;;;;;;;;5303109;26;20273;-93
2024/04/13 04:06:19;;;;;;;1.23;1.07;;;;;;;;;;5321220;26;20420;-93
2024/04/13 04:08:46;;;;;;;2.03;1.10;;;;;;;;;;5290489;26;20288;-93
2024/04/13 04:11:12;;;;;;;3.43;1.73;;;;;;;;;;5259723;26;20447;-93
2024/04/13 04:13:38;;;;;;;4.20;1.97;;;;;;;;;;5256920;27;20322;-93
2024/04/13 04:16:04;;;;;;;5.57;1.67;;;;;;;;;;5277981;26;20258;-92
2024/04/13 04:18:33;;;;;;;10.83;1.13;;;;;;;;;;5263399;26;20272;-93
2024/04/13 04:20:59;;;;;;;1.13;0.97;;;;;;;;;;5279121;26;20265;-93
2024/04/13 04:23:28;;;;;;;7.00;1.33;;;;;;;;;;5259894;27;20320;-93
2024/04/13 04:25:54;;;;;;;1.40;1.30;;;;;;;;;;5252609;26;20266;-93
2024/04/13 04:28:20;;;;;;;4.83;1.60;;;;;;;;;;5287455;26;20257;-93
2024/04/13 04:30:46;;;;;;;9.03;2.60;;;;;;;;;;5324344;26;21143;-94
2024/04/13 04:33:13;;;;;;;6.10;1.13;;;;;;;;;;5325025;26;20264;-93
2024/04/13 04:35:39;;;;;;;2.27;1.00;;;;;;;;;;5322681;26;20604;-93
2024/04/13 04:38:06;;;;;;;2.43;0.80;;;;;;;;;;5336006;26;20358;-92
2024/04/13 04:40:34;;;;;;;5.17;1.30;;;;;;;;;;5318649;26;20328;-92
2024/04/13 04:43:05;;;;;;;2.37;1.27;;;;;;;;;;5312436;26;20605;-92
2024/04/13 04:45:37;;;;;;;1.63;0.80;;;;;;;;;;5324817;26;20244;-91
2024/04/13 04:48:03;;;;;;;1.07;0.93;;;;;;;;;;5326404;26;20264;-92
2024/04/13 04:50:30;;;;;;;2.07;0.70;;;;;;;;;;5325784;26;20261;-92
2024/04/13 04:52:56;;;;;;;4.00;1.60;;;;;;;;;;5327460;26;20273;-93
2024/04/13 04:55:25;;;;;;;0.67;0.57;;;;;;;;;;5320824;26;20312;-93
2024/04/13 04:57:51;;;;;;;3.17;1.50;;;;;;;;;;5327943;26;20245;-92
2024/04/13 05:00:18;;;;;;;1.33;0.63;;;;;;;;;;5337081;26;20253;-94
2024/04/13 05:02:45;;;;;;;2.63;1.03;;;;;;;;;;5322479;26;20714;-92
2024/04/13 05:05:15;;;;;;;11.57;1.93;;;;;;;;;;5327016;26;20265;-93
2024/04/13 05:07:43;;;;;;;11.23;1.73;;;;;;;;;;5327047;26;20284;-94
2024/04/13 05:10:10;;;;;;;3.60;2.23;;;;;;;;;;5327483;26;20296;-94
2024/04/13 05:12:37;;;;;;;2.60;1.57;;;;;;;;;;5330552;26;20316;-94
2024/04/13 05:15:03;;;;;;;3.10;0.90;;;;;;;;;;5319137;26;20260;-94
2024/04/13 05:17:29;;;;;;;6.77;1.40;;;;;;;;;;5325711;26;20276;-92
2024/04/13 05:19:55;;;;;;;3.30;1.07;;;;;;;;;;5298966;26;20264;-93
2024/04/13 05:22:22;;;;;;;6.53;1.80;;;;;;;;;;5322595;26;20361;-94
2024/04/13 05:24:48;;;;;;;2.33;1.77;;;;;;;;;;5323554;26;20274;-93
2024/04/13 05:27:19;;;;;;;2.27;1.27;;;;;;;;;;5323099;26;20768;-93
2024/04/13 05:29:53;;;;;;;7.83;1.77;;;;;;;;;;5325461;26;20262;-91
2024/04/13 05:32:20;;;;;;;9.77;2.40;;;;;;;;;;5350687;26;20485;-91
2024/04/13 05:34:46;;;;;;;8.60;1.67;;;;;;;;;;5323603;26;20252;-91
2024/04/13 05:37:12;;;;;;;3.27;1.00;;;;;;;;;;5331271;26;20268;-92
2024/04/13 05:39:41;;;;;;;5.17;1.03;;;;;;;;;;5328247;26;20288;-89
2024/04/13 05:42:07;;;;;;;3.17;1.23;;;;;;;;;;5281557;26;20261;-89
2024/04/13 05:44:37;;;;;;;1.03;0.77;;;;;;;;;;5313269;26;20324;-94
2024/04/13 05:47:04;;;;;;;6.03;1.27;;;;;;;;;;5310017;26;20430;-93
2024/04/13 05:49:33;;;;;;;7.10;1.33;;;;;;;;;;5346711;26;20355;-93
2024/04/13 05:51:59;;;;;;;7.97;1.67;;;;;;;;;;5289073;26;20791;-92
2024/04/13 05:54:25;;;;;;;1.47;1.37;;;;;;;;;;5364908;26;20750;-93
2024/04/13 05:56:54;;;;;;;9.57;1.43;;;;;;;;;;5300441;26;20269;-93
2024/04/13 05:59:21;;;;;;;5.90;1.50;;;;;;;;;;5324167;26;20816;-93
2024/04/13 06:01:47;;;;;;;3.30;1.03;;;;;;;;;;5314798;26;20715;-92
2024/04/13 06:04:16;;;;;;;2.37;1.33;;;;;;;;;;5325186;26;20260;-94
2024/04/13 06:06:42;;;;;;;8.03;1.63;;;;;;;;;;5328761;26;20321;-92
2024/04/13 06:09:08;;;;;;;8.83;1.83;;;;;;;;;;5337032;26;20335;-93
2024/04/13 06:11:34;;;;;;;2.00;1.10;;;;;;;;;;5349590;26;20810;-93
2024/04/13 06:14:03;;;;;;;1.87;1.77;;;;;;;;;;5317331;26;20323;-94
2024/04/13 06:16:29;;;;;;;0.87;0.87;;;;;;;;;;5312836;26;20302;-93
2024/04/13 06:18:57;;;;;;;2.70;1.20;;;;;;;;;;5311608;26;20272;-91
2024/04/13 06:21:26;;;;;;;10.07;1.93;;;;;;;;;;5295957;26;20518;-91
2024/04/13 06:23:55;;;;;;;3.87;1.63;;;;;;;;;;5330011;26;20276;-92
2024/04/13 06:26:27;;;;;;;2.53;1.63;;;;;;;;;;5354528;26;20690;-94
2024/04/13 06:28:53;;;;;;;2.07;1.00;;;;;;;;;;5332426;26;20263;-93
2024/04/13 06:31:28;;;;;;;1.10;0.97;;;;;;;;;;5334010;26;20638;-93
2024/04/13 06:33:57;;;;;;;2.53;1.27;;;;;;;;;;5328185;26;20340;-90
2024/04/13 06:36:23;;;;;;;1.80;1.57;;;;;;;;;;5298021;26;20301;-89
2024/04/13 06:38:55;;;;;;;6.07;2.20;;;;;;;;;;5354590;26;20413;-91
2024/04/13 06:41:31;;;;;;;;;;;;;;;;;;;;;
2024/04/13 06:44:05;;;;;;;8.47;1.43;;;;;;;;;;5348580;26;20246;-92
2024/04/13 06:46:51;;;;;;;4.40;1.17;;;;;;;;;;5328163;26;20752;-91
2024/04/13 06:49:33;;;;;;;3.17;1.53;;;;;;;;;;5328688;26;20259;-93
2024/04/13 06:52:13;;;;;;;1.90;1.13;;;;;;;;;;5343984;26;20312;-93
2024/04/13 06:55:11;;;;;;;2.50;1.53;;;;;;;;;;5351004;26;20534;-93
2024/04/13 06:57:40;;;;;;;6.67;1.37;;;;;;;;;;5361716;26;20244;-92
2024/04/13 07:00:27;;;;;;;2.70;1.83;;;;;;;;;;5323600;26;20256;-95
2024/04/13 07:05:45;;;;;;;1.20;1.10;;;;;;;;;;5285978;26;20258;-92
2024/04/13 07:08:17;;;;;;;5.60;0.90;;;;;;;;;;5329745;26;20312;-93
2024/04/13 07:10:52;;;;;;;2.80;1.27;;;;;;;;;;5347290;26;20307;-93
2024/04/13 07:13:21;;;;;;;5.93;1.60;;;;;;;;;;5327384;26;20268;-92
2024/04/13 07:15:48;;;;;;;4.40;1.40;;;;;;;;;;5355256;26;20800;-93
2024/04/13 07:18:20;;;;;;;6.07;1.57;;;;;;;;;;5335458;26;20646;-94
2024/04/13 07:21:16;;;;;;;3.43;1.37;;;;;;;;;;5327510;26;20259;-94
2024/04/13 07:24:06;;;;;;;;;;;;;;;;;;;;;
2024/04/13 07:26:45;;;;;;;4.10;2.17;;;;;;;;;;5328062;26;20244;-91
2024/04/13 07:29:14;;;;;;;5.80;1.70;;;;;;;;;;5329515;26;20245;-92
2024/04/13 07:32:02;;;;;;;3.07;1.20;;;;;;;;;;5324123;26;20300;-93
2024/04/13 07:34:29;;;;;;;7.00;1.73;;;;;;;;;;5357578;26;20265;-93
2024/04/13 07:37:14;;;;;;;3.27;1.33;;;;;;;;;;5317952;26;20245;-93
2024/04/13 07:39:46;;;;;;;2.00;1.23;;;;;;;;;;5330965;26;20258;-94
2024/04/13 07:42:37;;;;;;;2.60;1.20;;;;;;;;;;5321395;26;20850;-94
2024/04/13 07:45:12;;;;;;;4.33;1.40;;;;;;;;;;5348094;26;20307;-93
2024/04/13 07:47:43;;;;;;;1.93;1.40;;;;;;;;;;5302359;26;20260;-94
2024/04/13 07:50:12;;;;;;;1.93;1.23;;;;;;;;;;5334639;26;20314;-93
2024/04/13 07:52:38;;;;;;;3.90;1.10;;;;;;;;;;5313603;26;20942;-92
2024/04/13 07:55:14;;;;;;;7.47;2.63;;;;;;;;;;5324378;26;20240;-94
2024/04/13 07:57:43;;;;;;;2.23;1.43;;;;;;;;;;5338200;26;20271;-93
2024/04/13 08:00:15;;;;;;;3.50;1.53;;;;;;;;;;5330440;26;20311;-93
2024/04/13 08:02:48;;;;;;;4.88;1.77;;;;;;;;;;5295445;26;20252;-94
2024/04/13 08:05:56;;;;;;;;;;;;;;;;;;;;;
2024/04/13 08:08:35;;;;;;;4.15;2.58;;;;;;;;;;5363110;26;20258;-93
2024/04/13 08:11:25;;;;;;;;;;;;;;;;;;;;;
2024/04/13 08:14:12;;;;;;;;;;;;;;;;;;;;;
2024/04/13 08:17:06;;;;;;;3.53;1.45;;;;;;;;;;5364708;26;20271;-93
2024/04/13 08:19:43;;;;;;;2.45;1.70;;;;;;;;;;5323789;26;20337;-90
2024/04/13 08:22:21;;;;;;;9.63;1.85;;;;;;;;;;5349601;26;20788;-91
2024/04/13 08:24:47;;;;;;;3.05;1.80;;;;;;;;;;5331222;26;20327;-92
2024/04/13 08:27:40;;;;;;;4.80;1.55;;;;;;;;;;5363164;26;20348;-94
2024/04/13 08:30:20;;;;;;;3.70;1.40;;;;;;;;;;5299367;26;20285;-94
2024/04/13 08:33:16;;;;;;;2.83;1.63;;;;;;;;;;5119275;27;21557;-93
2024/04/13 08:35:52;;;;;;;;;;;;;;;;;;;;;
2024/04/13 08:38:24;;;;;;;1.33;1.23;;;;;;;;;;5139449;27;20271;-94
2024/04/13 08:41:22;;;;;;;2.78;1.95;;;;;;;;;;5101150;27;20723;-93
2024/04/13 08:44:07;;;;;;;4.13;1.58;;;;;;;;;;5095057;27;20271;-94
2024/04/13 08:47:05;;;;;;;5.85;1.98;;;;;;;;;;5082340;27;20275;-93
2024/04/13 08:50:06;;;;;;;3.90;2.20;;;;;;;;;;5091690;27;20312;-94
2024/04/13 08:52:42;;;;;;;4.07;1.60;;;;;;;;;;5097240;27;20358;-93
2024/04/13 08:55:13;;;;;;;1.95;1.38;;;;;;;;;;5131820;27;20241;-95
2024/04/13 08:57:59;;;;;;;4.95;1.65;;;;;;;;;;5089684;27;20320;-94
2024/04/13 09:01:00;;;;;;;;;;;;;;;;;;;;;
2024/04/13 09:04:05;;;;;;;2.95;1.48;;;;;;;;;;5233562;27;20240;-94
2024/04/13 09:07:00;;;;;;;4.60;1.70;;;;;;;;;;5178368;27;20252;-94
2024/04/13 09:10:11;;;;;;;3.15;2.15;;;;;;;;;;5242921;26;20286;-93
2024/04/13 09:15:51;;;;;;;6.67;2.33;;;;;;;;;;5285554;26;20288;-95
2024/04/13 09:18:50;;;;;;;2.75;2.55;;;;;;;;;;5291623;26;20259;-94
2024/04/13 09:21:34;;;;;;;;;;;;;;;;;;;;;
2024/04/13 09:24:46;;;;;;;4.50;1.17;;;;;;;;;;5276100;27;20243;-93
2024/04/13 09:30:37;;;;;;;2.78;2.10;;;;;;;;;;5281594;27;20313;-94
2024/04/13 09:33:35;;;;;;;4.00;2.20;;;;;;;;;;5268588;27;20247;-94
2024/04/13 09:38:57;;;;;;;3.15;1.65;;;;;;;;;;5253645;26;20262;-92
2024/04/13 09:41:36;;;;;;;;;;;;;;;;;;;;;
2024/04/13 09:44:44;;;;;;;1.60;1.50;;;;;;;;;;5321116;26;20282;-94
2024/04/13 09:47:52;;;;;;;;;;;;;;;;;;;;;
2024/04/13 09:50:32;;;;;;;3.80;1.48;;;;;;;;;;5296756;26;20268;-94
2024/04/13 09:53:31;;;;;;;2.33;1.40;;;;;;;;;;5377721;26;20259;-95
2024/04/13 09:59:56;;;;;;;2.78;1.65;;;;;;;;;;5334727;26;20233;-94
2024/04/13 10:09:14;;;;;;;2.30;1.17;;;;;;;;;;5304750;26;20261;-94
2024/04/13 10:12:00;;;;;;;2.25;2.05;;;;;;;;;;5368548;26;20269;-94
2024/04/13 10:14:41;;;;;;;4.05;1.92;;;;;;;;;;5329137;26;20605;-92
2024/04/13 10:17:15;;;;;;;1.67;1.20;;;;;;;;;;5254743;26;20358;-94
2024/04/13 10:20:21;;;;;;;4.97;2.00;;;;;;;;;;5319434;26;20303;-95
2024/04/13 10:23:02;;;;;;;2.55;1.27;;;;;;;;;;5359355;26;20261;-94
2024/04/13 10:25:33;;;;;;;4.53;1.77;;;;;;;;;;5321568;26;20288;-94
2024/04/13 10:28:10;;;;;;;2.30;2.10;;;;;;;;;;5326534;26;20291;-93
2024/04/13 10:30:55;;;;;;;4.60;1.80;;;;;;;;;;5328022;26;20278;-95
2024/04/13 10:33:42;;;;;;;9.33;2.67;;;;;;;;;;5363048;26;20240;-94
2024/04/13 10:36:12;;;;;;;5.90;1.80;;;;;;;;;;5357533;26;20264;-93
2024/04/13 10:38:40;;;;;;;3.37;2.50;;;;;;;;;;5318542;26;20260;-94
2024/04/13 10:41:35;;;;;;;3.90;2.07;;;;;;;;;;5332467;26;20350;-93
2024/04/13 10:44:10;;;;;;;2.17;1.53;;;;;;;;;;5325566;26;20668;-95
2024/04/13 10:46:41;;;;;;;2.70;1.83;;;;;;;;;;5362138;26;20306;-93
2024/04/13 10:49:12;;;;;;;2.43;1.90;;;;;;;;;;5301727;26;20299;-92
2024/04/13 10:51:43;;;;;;;5.37;1.93;;;;;;;;;;5332112;26;20445;-93
2024/04/13 10:54:13;;;;;;;1.80;1.57;;;;;;;;;;5337484;26;20816;-93
2024/04/13 10:56:44;;;;;;;2.47;2.00;;;;;;;;;;5363886;26;20328;-92
2024/04/13 10:59:24;;;;;;;3.03;1.90;;;;;;;;;;5329949;26;20287;-94
2024/04/13 11:01:58;;;;;;;5.27;2.20;;;;;;;;;;5325159;26;20263;-94
2024/04/13 11:04:29;;;;;;;4.30;1.75;;;;;;;;;;5347358;26;20266;-93
2024/04/13 11:07:00;;;;;;;1.70;1.58;;;;;;;;;;5376465;26;20281;-93
2024/04/13 11:09:49;;;;;;;3.38;1.58;;;;;;;;;;5321985;26;20942;-93
2024/04/13 11:12:22;;;;;;;2.53;1.77;;;;;;;;;;5300089;26;20885;-95
2024/04/13 11:14:50;;;;;;;2.33;2.07;;;;;;;;;;5323952;26;20258;-94
2024/04/13 11:17:19;;;;;;;2.13;1.50;;;;;;;;;;5333266;26;20836;-94
2024/04/13 11:19:57;;;;;;;1.88;1.63;;;;;;;;;;5330217;26;20300;-94
2024/04/13 11:22:42;;;;;;;4.00;2.20;;;;;;;;;;5300341;26;20251;-94
2024/04/13 11:26:01;;;;;;;;;;;;;;;;;;;;;
2024/04/13 11:28:24;;;;;;;1.90;1.70;;;;;;;;;;5223871;27;20303;-93
2024/04/13 11:30:59;;;;;;;4.17;2.10;;;;;;;;;;5209909;27;20238;-94
2024/04/13 11:33:59;;;;;;;2.30;1.85;;;;;;;;;;5254792;27;20242;-93
2024/04/13 11:36:51;;;;;;;4.50;2.83;;;;;;;;;;5295078;26;20262;-95
2024/04/13 11:39:25;;;;;;;2.63;2.25;;;;;;;;;;5270596;26;20249;-93
2024/04/13 11:42:00;;;;;;;1.63;1.52;;;;;;;;;;5271175;26;20257;-93
2024/04/13 11:45:06;;;;;;;8.18;2.15;;;;;;;;;;5292866;26;20257;-94
2024/04/13 11:47:40;;;;;;;5.35;2.38;;;;;;;;;;5269605;26;20299;-93
2024/04/13 11:51:17;;;;;;;;;;;;;;;;;;;;;
2024/04/13 11:54:04;;;;;;;4.72;2.10;;;;;;;;;;5180273;27;20269;-92
2024/04/13 11:57:16;;;;;;;3.17;2.07;;;;;;;;;;5175474;27;20333;-94
2024/04/13 11:59:45;;;;;;;2.70;1.87;;;;;;;;;;5247286;27;20267;-93
2024/04/13 12:02:22;;;;;;;4.30;2.17;;;;;;;;;;5304914;27;20250;-93
2024/04/13 12:05:12;;;;;;;2.88;1.90;;;;;;;;;;5235691;27;20289;-93
2024/04/13 12:08:08;;;;;;;3.92;2.50;;;;;;;;;;5229451;27;20262;-94
2024/04/13 12:10:51;;;;;;;3.63;2.57;;;;;;;;;;5241479;27;20849;-93
2024/04/13 12:13:26;;;;;;;4.65;2.35;;;;;;;;;;5249303;27;20809;-92
2024/04/13 12:19:09;;;;;;;3.17;1.80;;;;;;;;;;5153581;27;20311;-93
2024/04/13 12:22:17;;;;;;;5.30;2.90;;;;;;;;;;5216318;27;20230;-93
2024/04/13 12:25:16;;;;;;;;;;;;;;;;;;;;;
2024/04/13 12:28:08;;;;;;;3.37;1.90;;;;;;;;;;5300004;26;20280;-93
2024/04/13 12:31:14;;;;;;;2.80;1.77;;;;;;;;;;5197309;27;21130;-93
2024/04/13 12:34:15;;;;;;;4.90;2.25;;;;;;;;;;5230799;27;20249;-92
2024/04/13 12:36:47;;;;;;;2.50;2.27;;;;;;;;;;5151720;27;20260;-93
2024/04/13 12:39:45;;;;;;;4.73;2.57;;;;;;;;;;5130715;27;20293;-93
2024/04/13 12:42:31;;;;;;;7.70;2.05;;;;;;;;;;5128891;27;20576;-92
2024/04/13 12:45:09;;;;;;;3.47;1.93;;;;;;;;;;5207685;27;20740;-93
2024/04/13 12:47:39;;;;;;;3.03;2.23;;;;;;;;;;5204228;27;21037;-92
2024/04/13 12:50:12;;;;;;;4.80;2.20;;;;;;;;;;5191067;27;20375;-92
2024/04/13 12:52:38;;;;;;;3.73;2.67;;;;;;;;;;5198940;27;20323;-93
2024/04/13 12:55:08;;;;;;;1.67;1.50;;;;;;;;;;5189217;27;20246;-91
2024/04/13 12:57:38;;;;;;;4.53;3.17;;;;;;;;;;5190932;27;20245;-92
2024/04/13 13:00:05;;;;;;;3.90;2.40;;;;;;;;;;5187735;27;20269;-93
2024/04/13 13:02:32;;;;;;;3.17;1.70;;;;;;;;;;5187975;27;20275;-92
2024/04/13 13:05:03;;;;;;;4.18;2.55;;;;;;;;;;5221687;27;20265;-94
2024/04/13 13:07:36;;;;;;;2.38;1.58;;;;;;;;;;5218253;27;20355;-94
2024/04/13 13:10:08;;;;;;;2.63;1.88;;;;;;;;;;5233073;27;20243;-94
2024/04/13 13:12:34;;;;;;;5.18;2.53;;;;;;;;;;5248772;26;20239;-93
2024/04/13 13:15:24;;;;;;;4.05;2.15;;;;;;;;;;5302537;26;20299;-93
2024/04/13 13:17:51;;;;;;;2.50;1.88;;;;;;;;;;5303754;26;20268;-94
2024/04/13 13:20:20;;;;;;;3.70;2.30;;;;;;;;;;5324748;26;20324;-91
2024/04/13 13:22:55;;;;;;;2.83;1.90;;;;;;;;;;5320814;26;21452;-93
2024/04/13 13:25:25;;;;;;;3.10;1.98;;;;;;;;;;5320079;26;20260;-93
2024/04/13 13:27:54;;;;;;;3.13;1.90;;;;;;;;;;5297964;26;20241;-92
2024/04/13 13:30:23;;;;;;;4.30;1.90;;;;;;;;;;5358542;26;20236;-93
2024/04/13 13:32:58;;;;;;;3.85;2.45;;;;;;;;;;5368035;26;20680;-91
2024/04/13 13:35:54;;;;;;;2.22;1.30;;;;;;;;;;5351103;26;20301;-94
2024/04/13 13:38:22;;;;;;;3.88;2.47;;;;;;;;;;5266686;26;20280;-90
2024/04/13 13:40:51;;;;;;;1.95;1.70;;;;;;;;;;5346638;26;20281;-93
2024/04/13 13:43:21;;;;;;;3.00;1.73;;;;;;;;;;5265459;26;20297;-92
2024/04/13 13:45:47;;;;;;;2.28;2.03;;;;;;;;;;5340512;26;20248;-93
2024/04/13 13:48:18;;;;;;;2.90;1.92;;;;;;;;;;5351837;26;20287;-91
2024/04/13 13:50:47;;;;;;;2.90;1.97;;;;;;;;;;5304416;26;20294;-93
2024/04/13 13:53:14;;;;;;;3.72;2.15;;;;;;;;;;5355197;26;20302;-91
2024/04/13 13:55:40;;;;;;;2.95;1.70;;;;;;;;;;5325986;26;20306;-91
2024/04/13 13:58:06;;;;;;;2.17;1.80;;;;;;;;;;5325810;26;20619;-90
2024/04/13 14:00:38;;;;;;;7.20;2.13;;;;;;;;;;5322575;26;20296;-92
2024/04/13 14:03:07;;;;;;;3.30;2.17;;;;;;;;;;5326713;26;20261;-93
2024/04/13 14:05:39;;;;;;;3.38;2.42;;;;;;;;;;5308704;26;20437;-92
2024/04/13 14:08:10;;;;;;;4.65;2.95;;;;;;;;;;5302052;26;20277;-93
2024/04/13 14:10:40;;;;;;;3.92;2.78;;;;;;;;;;5351121;26;20311;-95
2024/04/13 14:15:53;;;;;;;3.95;2.35;;;;;;;;;;5359652;26;20861;-95
2024/04/13 14:18:27;;;;;;;3.30;2.53;;;;;;;;;;5326375;26;20279;-93
2024/04/13 14:20:57;;;;;;;1.83;1.50;;;;;;;;;;5304497;26;20860;-91
2024/04/13 14:23:23;;;;;;;4.25;2.60;;;;;;;;;;5288568;26;20268;-93
2024/04/13 14:25:50;;;;;;;4.72;2.97;;;;;;;;;;5348867;26;20447;-92
2024/04/13 14:28:19;;;;;;;3.30;3.00;;;;;;;;;;5326694;26;20295;-91
2024/04/13 14:30:46;;;;;;;5.10;3.30;;;;;;;;;;5327774;26;20256;-93
2024/04/13 14:33:14;;;;;;;4.55;3.33;;;;;;;;;;5330915;26;20754;-93
2024/04/13 14:35:44;;;;;;;4.20;3.60;;;;;;;;;;5327529;26;20345;-93
2024/04/13 14:38:10;;;;;;;5.07;3.55;;;;;;;;;;5304722;26;20656;-93
2024/04/13 14:40:38;;;;;;;4.97;3.08;;;;;;;;;;5354121;26;20368;-93
2024/04/13 14:43:14;;;;;;;4.60;3.50;;;;;;;;;;5303346;26;20608;-91
2024/04/13 14:45:50;;;;;;;5.53;4.20;;;;;;;;;;5177742;27;20248;-92
2024/04/13 14:48:16;;;;;;;6.27;3.10;;;;;;;;;;5200954;27;20272;-92
2024/04/13 14:51:03;;;;;;;4.55;3.45;;;;;;;;;;5167475;27;20426;-91
2024/04/13 14:53:35;;;;;;;4.67;2.80;;;;;;;;;;5177553;27;20583;-93
2024/04/13 14:56:05;;;;;;;3.70;2.60;;;;;;;;;;5189987;27;20265;-93
2024/04/13 14:58:36;;;;;;;5.17;2.57;;;;;;;;;;5151349;27;20294;-93
2024/04/13 15:01:05;;;;;;;5.30;2.20;;;;;;;;;;5190693;27;20344;-90
2024/04/13 15:03:34;;;;;;;5.13;2.77;;;;;;;;;;5175742;27;20253;-92
2024/04/13 15:06:01;;;;;;;5.83;2.57;;;;;;;;;;5174176;27;20768;-90
2024/04/13 15:08:27;;;;;;;4.20;2.53;;;;;;;;;;5174255;27;20767;-91
2024/04/13 15:10:53;;;;;;;3.40;2.60;;;;;;;;;;5160352;27;20306;-89
2024/04/13 15:13:41;;;;;;;5.97;2.87;;;;;;;;;;5179984;27;20272;-94
2024/04/13 15:16:08;;;;;;;3.47;2.50;;;;;;;;;;5267143;26;20241;-92
2024/04/13 15:18:36;;;;;;;3.03;2.47;;;;;;;;;;5298729;26;20248;-92
2024/04/13 15:21:04;;;;;;;2.83;2.37;;;;;;;;;;5356144;26;20855;-92
2024/04/13 15:23:31;;;;;;;3.33;1.60;;;;;;;;;;5345534;26;20362;-94
2024/04/13 15:25:57;;;;;;;2.43;2.13;;;;;;;;;;5338182;26;20296;-91
2024/04/13 15:28:27;;;;;;;1.73;1.57;;;;;;;;;;5325211;26;20304;-94
2024/04/13 15:30:56;;;;;;;2.90;2.53;;;;;;;;;;5323847;26;20311;-93
2024/04/13 15:33:24;;;;;;;3.10;1.70;;;;;;;;;;5325501;26;20245;-93
2024/04/13 15:35:50;;;;;;;1.87;1.60;;;;;;;;;;5320220;26;20251;-93
2024/04/13 15:38:20;;;;;;;6.23;2.17;;;;;;;;;;5329297;26;20265;-93
2024/04/13 15:40:46;;;;;;;4.50;1.67;;;;;;;;;;5298597;26;20269;-94
2024/04/13 15:43:16;;;;;;;2.63;1.30;;;;;;;;;;5355052;26;20795;-93
2024/04/13 15:45:43;;;;;;;1.90;1.80;;;;;;;;;;5326860;26;20323;-93
2024/04/13 15:48:18;;;;;;;1.67;1.50;;;;;;;;;;5331510;26;20260;-94
2024/04/13 15:50:47;;;;;;;4.17;1.70;;;;;;;;;;5323310;26;20270;-93
2024/04/13 15:53:18;;;;;;;2.37;1.43;;;;;;;;;;5330383;26;20622;-90
2024/04/13 15:55:44;;;;;;;2.70;1.77;;;;;;;;;;5329634;26;20268;-92
2024/04/13 15:58:19;;;;;;;5.53;1.73;;;;;;;;;;5327234;26;20349;-94
2024/04/13 16:00:49;;;;;;;1.70;1.40;;;;;;;;;;5330963;26;20260;-93
2024/04/13 16:03:18;;;;;;;2.70;1.37;;;;;;;;;;5328535;26;20248;-95
2024/04/13 16:05:48;;;;;;;3.10;1.83;;;;;;;;;;5326682;26;20339;-90